Time;durP1;ratioP1;P1;durP2;ratioP2;P2;SDS_P1;SDS_P2;PMS_P1;PMS_P2;Temp;Humidity;BMP_temperature;BMP_pressure;BME280_temperature;BME280_humidity;BME280_pressure;Samples;Min_cycle;Max_cycle;Signal;HPM_P1;HPM_P2
2021/05/31 00:00:14;;;;;;;4.80;3.40;;;13.80;52.60;;;13.69;59.63;98659.09;5037655;28;20693;-65
2021/05/31 00:02:44;;;;;;;4.67;3.40;;;13.70;52.90;;;13.63;59.03;98661.31;5036799;28;20635;-65
2021/05/31 00:05:13;;;;;;;4.23;3.40;;;13.70;53.20;;;13.61;60.13;98652.75;5035813;28;20642;-65
2021/05/31 00:07:41;;;;;;;3.83;2.97;;;13.60;52.90;;;13.57;58.69;98650.44;5036003;28;21272;-65
2021/05/31 00:10:12;;;;;;;5.00;3.63;;;13.60;53.00;;;13.53;60.17;98648.97;5035826;28;20646;-65
2021/05/31 00:12:40;;;;;;;4.40;3.60;;;13.60;53.10;;;13.52;60.27;98649.94;5036286;28;20651;-65
2021/05/31 00:15:10;;;;;;;5.37;3.67;;;13.60;53.20;;;13.48;59.68;98643.25;5034270;28;20635;-65
2021/05/31 00:17:40;;;;;;;5.07;3.20;;;13.50;53.20;;;13.41;59.66;98641.97;5035511;28;20643;-66
2021/05/31 00:20:12;;;;;;;5.20;3.50;;;13.50;53.40;;;13.37;59.22;98637.94;5034021;28;20639;-65
2021/05/31 00:22:40;;;;;;;4.53;3.33;;;13.40;53.60;;;13.35;60.03;98637.19;5040559;28;21013;-65
2021/05/31 00:25:10;;;;;;;5.33;3.60;;;13.40;53.60;;;13.28;58.90;98635.94;5035447;28;20708;-65
2021/05/31 00:27:38;;;;;;;3.73;3.00;;;13.40;53.70;;;13.30;59.75;98629.63;5030884;28;21312;-65
2021/05/31 00:30:10;;;;;;;4.70;3.50;;;13.30;53.70;;;13.25;60.00;98625.69;5049830;28;20635;-65
2021/05/31 00:32:39;;;;;;;4.23;3.33;;;13.30;53.60;;;13.22;59.90;98631.16;5035689;28;20649;-65
2021/05/31 00:35:11;;;;;;;4.97;2.97;;;13.20;53.50;;;13.22;60.00;98623.28;5037865;28;20654;-65
2021/05/31 00:37:39;;;;;;;3.80;3.03;;;13.20;53.50;;;13.21;59.28;98632.06;5034622;28;20647;-65
2021/05/31 00:40:10;;;;;;;3.73;3.20;;;13.20;53.80;;;13.15;59.96;98629.88;5035343;28;21183;-65
2021/05/31 00:42:39;;;;;;;5.40;3.40;;;13.20;54.10;;;13.13;60.76;98636.19;5032224;28;20677;-65
2021/05/31 00:45:09;;;;;;;5.10;3.03;;;13.20;54.20;;;13.11;59.43;98630.22;5035913;28;20658;-65
2021/05/31 00:47:37;;;;;;;4.47;3.17;;;13.10;54.20;;;13.00;61.09;98630.94;5036594;28;20662;-65
2021/05/31 00:50:08;;;;;;;4.33;3.33;;;13.00;54.40;;;12.94;62.44;98620.91;5039994;28;20666;-65
2021/05/31 00:52:37;;;;;;;5.50;3.50;;;13.00;54.80;;;12.92;60.83;98628.03;5037117;28;21040;-65
2021/05/31 00:55:07;;;;;;;3.20;2.90;;;13.00;54.70;;;12.89;60.52;98619.56;5038982;28;20700;-65
2021/05/31 00:57:35;;;;;;;3.70;2.67;;;12.90;55.00;;;12.82;62.15;98621.78;5037446;28;21200;-65
2021/05/31 01:00:05;;;;;;;5.17;3.17;;;12.90;55.10;;;12.84;60.93;98626.91;5039222;28;20640;-65
2021/05/31 01:02:34;;;;;;;4.10;2.83;;;12.90;54.90;;;12.85;60.22;98620.69;5039958;28;20628;-65
2021/05/31 01:05:03;;;;;;;6.70;3.20;;;12.90;55.10;;;12.79;61.55;98619.34;5037157;28;20673;-65
2021/05/31 01:07:38;;;;;;;4.00;3.10;;;12.80;55.00;;;12.75;62.11;98614.41;5039228;28;20647;-65
2021/05/31 01:10:16;;;;;;;3.50;2.70;;;12.80;55.20;;;12.77;60.74;98613.34;5045052;28;20651;-65
2021/05/31 01:12:55;;;;;;;4.10;3.00;;;12.80;55.10;;;12.75;61.25;98617.84;5035543;28;21247;-65
2021/05/31 01:15:27;;;;;;;4.70;2.70;;;12.70;55.20;;;12.73;62.80;98616.28;5041866;28;20640;-65
2021/05/31 01:18:03;;;;;;;3.30;2.90;;;12.80;55.40;;;12.72;60.83;98615.44;5039987;28;20630;-65
2021/05/31 01:21:05;;;;;;;3.63;3.00;;;12.80;55.40;;;12.69;61.24;98615.66;5036541;28;20656;-65
2021/05/31 01:23:39;;;;;;;4.80;2.90;;;12.70;55.40;;;12.68;62.71;98614.94;5035986;28;20691;-65
2021/05/31 01:26:12;;;;;;;4.23;2.93;;;12.70;55.50;;;12.75;62.06;98625.72;5041231;28;20622;-65
2021/05/31 01:29:00;;;;;;;4.00;3.33;;;12.80;56.00;;;12.67;62.06;98626.34;5039108;28;21048;-65
2021/05/31 01:31:41;;;;;;;3.33;3.03;;;12.70;55.50;;;12.63;61.68;98612.63;5038398;28;20642;-65
2021/05/31 01:34:12;;;;;;;3.97;3.20;;;12.70;55.60;;;12.61;61.88;98611.06;5044641;28;21134;-65
2021/05/31 01:36:46;;;;;;;4.80;3.17;;;12.70;55.90;;;12.53;62.72;98616.81;5038064;28;20631;-65
2021/05/31 01:39:20;;;;;;;4.50;3.20;;;12.60;55.90;;;12.52;61.83;98616.91;5036084;28;20646;-65
2021/05/31 01:41:49;;;;;;;3.40;3.00;;;12.60;56.00;;;12.51;61.33;98610.84;5046469;28;20633;-65
2021/05/31 01:44:20;;;;;;;4.70;3.23;;;12.60;56.10;;;12.52;62.16;98604.66;5040082;28;21038;-65
2021/05/31 01:46:50;;;;;;;7.67;3.40;;;12.50;56.20;;;12.43;62.72;98605.31;5041695;28;20632;-65
2021/05/31 01:49:19;;;;;;;6.43;3.10;;;12.50;56.40;;;12.41;63.39;98622.03;5038987;28;20694;-65
2021/05/31 01:51:48;;;;;;;3.90;3.50;;;12.40;56.40;;;12.37;63.28;98613.56;5035215;28;20710;-65
2021/05/31 01:54:17;;;;;;;5.07;3.27;;;12.40;56.70;;;12.37;62.16;98610.09;5034520;28;20700;-65
2021/05/31 01:56:48;;;;;;;3.80;3.40;;;12.40;56.90;;;12.28;62.56;98602.84;5046356;28;20707;-65
2021/05/31 01:59:19;;;;;;;3.33;3.03;;;12.30;57.00;;;12.26;64.60;98607.34;5041452;28;20625;-65
2021/05/31 02:01:49;;;;;;;4.17;3.10;;;12.30;57.20;;;12.23;64.12;98596.28;5038998;28;20659;-65
2021/05/31 02:04:17;;;;;;;3.70;3.20;;;12.30;57.30;;;12.19;63.24;98603.47;5039890;28;20711;-65
2021/05/31 02:06:45;;;;;;;4.93;3.63;;;12.20;57.30;;;12.18;64.61;98607.03;5036480;28;21077;-65
2021/05/31 02:09:13;;;;;;;5.60;3.60;;;12.20;57.40;;;12.16;63.26;98602.84;5040012;28;20668;-65
2021/05/31 02:11:45;;;;;;;4.73;3.40;;;12.20;57.60;;;12.12;63.98;98603.97;5036290;28;20692;-65
2021/05/31 02:14:18;;;;;;;4.70;3.30;;;12.20;57.80;;;12.05;63.96;98600.94;5030468;28;20634;-65
2021/05/31 02:16:54;;;;;;;3.67;3.00;;;12.10;58.00;;;12.01;65.80;98594.25;5036328;28;20635;-65
2021/05/31 02:19:24;;;;;;;5.63;3.63;;;12.10;58.10;;;12.02;64.99;98595.06;5040601;28;20677;-65
2021/05/31 02:21:54;;;;;;;5.33;3.37;;;12.10;58.40;;;12.02;64.08;98600.31;5040231;28;20632;-65
2021/05/31 02:24:23;;;;;;;3.33;2.83;;;12.10;58.30;;;11.99;65.25;98596.09;5041358;28;20634;-65
2021/05/31 02:26:53;;;;;;;5.77;3.37;;;12.00;58.20;;;11.92;64.83;98596.59;5043218;28;21195;-65
2021/05/31 02:29:21;;;;;;;6.17;3.37;;;12.00;58.40;;;11.91;64.91;98595.78;5034248;28;20765;-65
2021/05/31 02:31:53;;;;;;;5.23;3.33;;;12.00;58.50;;;11.92;64.90;98601.84;5039564;28;20708;-65
2021/05/31 02:34:21;;;;;;;4.50;3.60;;;12.00;58.70;;;11.86;66.27;98600.47;5034756;28;20649;-65
2021/05/31 02:36:51;;;;;;;4.43;3.20;;;12.00;58.90;;;11.85;65.83;98595.34;5041461;28;20670;-65
2021/05/31 02:39:19;;;;;;;4.20;3.03;;;11.90;58.90;;;11.79;65.95;98603.59;5041197;28;20820;-65
2021/05/31 02:41:47;;;;;;;3.53;3.10;;;11.90;59.10;;;11.80;65.89;98608.72;5032197;28;20649;-65
2021/05/31 02:44:15;;;;;;;8.97;4.73;;;11.90;59.20;;;11.76;65.43;98602.00;5037408;28;20744;-65
2021/05/31 02:46:43;;;;;;;4.30;3.40;;;11.80;59.80;;;11.74;66.17;98604.81;5036271;28;20690;-65
2021/05/31 02:49:13;;;;;;;3.73;3.37;;;11.80;59.20;;;11.76;65.22;98604.63;5042033;28;20661;-65
2021/05/31 02:51:42;;;;;;;3.83;3.43;;;11.80;59.40;;;11.75;65.87;98602.09;5037101;28;20637;-65
2021/05/31 02:54:12;;;;;;;4.77;3.67;;;11.80;59.60;;;11.70;66.92;98603.31;5037140;28;20640;-65
2021/05/31 02:56:40;;;;;;;4.57;3.20;;;11.80;59.70;;;11.76;66.13;98604.63;5042355;28;21217;-65
2021/05/31 02:59:09;;;;;;;5.03;3.30;;;11.80;59.80;;;11.65;66.90;98603.66;5036877;28;20629;-65
2021/05/31 03:01:37;;;;;;;3.87;3.03;;;11.70;59.90;;;11.61;66.31;98599.53;5036458;28;20984;-65
2021/05/31 03:04:05;;;;;;;5.50;3.87;;;11.70;60.00;;;11.60;66.88;98597.88;5038512;28;21101;-65
2021/05/31 03:06:34;;;;;;;5.60;3.30;;;11.70;60.20;;;11.61;67.59;98599.53;5040509;28;21297;-65
2021/05/31 03:09:03;;;;;;;3.90;3.03;;;11.70;60.30;;;11.62;66.37;98595.16;5034165;28;21293;-65
2021/05/31 03:11:31;;;;;;;3.30;3.00;;;11.70;60.20;;;11.67;66.69;98598.31;5035144;28;20648;-65
2021/05/31 03:13:59;;;;;;;3.77;3.37;;;11.70;60.20;;;11.67;67.21;98606.16;5042660;28;20669;-65
2021/05/31 03:16:27;;;;;;;3.80;3.50;;;11.70;60.30;;;11.58;67.84;98599.75;5040635;28;21006;-65
2021/05/31 03:18:55;;;;;;;4.20;3.03;;;11.70;60.60;;;11.59;67.17;98600.56;5036699;28;20687;-65
2021/05/31 03:21:25;;;;;;;5.27;3.03;;;11.60;60.60;;;11.54;67.07;98597.44;5036101;28;20640;-65
2021/05/31 03:23:56;;;;;;;4.83;3.30;;;11.60;61.00;;;11.44;67.84;98602.38;5041146;28;21183;-65
2021/05/31 03:26:24;;;;;;;3.40;2.90;;;11.60;61.10;;;11.46;67.18;98597.88;5035489;28;20668;-65
2021/05/31 03:28:52;;;;;;;4.33;3.43;;;11.60;61.20;;;11.49;67.78;98599.50;5037843;28;21032;-65
2021/05/31 03:31:21;;;;;;;4.13;3.27;;;11.50;61.10;;;11.53;67.35;98600.97;5035319;28;20645;-65
2021/05/31 03:33:49;;;;;;;4.43;3.47;;;11.60;61.30;;;11.50;67.21;98593.31;5038864;28;20649;-65
2021/05/31 03:36:17;;;;;;;6.30;3.07;;;11.60;61.40;;;11.52;67.15;98600.13;5034426;28;20744;-65
2021/05/31 03:38:45;;;;;;;5.20;3.20;;;11.60;61.20;;;11.52;67.54;98594.91;5037557;28;20702;-65
2021/05/31 03:41:14;;;;;;;4.30;3.63;;;11.60;61.40;;;11.49;67.17;98594.28;5036073;28;21271;-65
2021/05/31 03:43:42;;;;;;;5.60;3.33;;;11.60;61.60;;;11.52;66.89;98597.53;5040373;28;20676;-65
2021/05/31 03:46:10;;;;;;;3.30;3.00;;;11.50;61.60;;;11.57;67.08;98594.63;5039043;28;20671;-65
2021/05/31 03:48:39;;;;;;;4.07;3.10;;;11.60;61.50;;;11.58;67.88;98604.97;5033058;28;20755;-66
2021/05/31 03:51:11;;;;;;;3.83;3.23;;;11.60;61.70;;;11.60;67.65;98607.47;5043658;28;20660;-65
2021/05/31 03:53:40;;;;;;;4.40;3.83;;;11.60;62.00;;;11.63;68.43;98607.28;5034656;28;20646;-65
2021/05/31 03:56:08;;;;;;;3.97;3.57;;;11.70;61.70;;;11.71;66.95;98610.22;5038603;28;20641;-65
2021/05/31 03:58:40;;;;;;;4.40;3.10;;;11.70;61.50;;;11.76;68.05;98614.25;5039944;28;21020;-65
2021/05/31 04:01:09;;;;;;;10.30;3.73;;;11.80;61.50;;;11.87;67.73;98619.59;5038413;28;20650;-65
2021/05/31 04:03:37;;;;;;;3.47;3.17;;;11.90;61.40;;;11.91;66.84;98608.03;5037387;28;20630;-65
2021/05/31 04:06:16;;;;;;;4.20;3.40;;;11.90;61.20;;;11.99;67.19;98606.56;5048796;28;20658;-65
2021/05/31 04:11:37;;;;;;;4.70;3.70;;;12.10;61.10;;;12.03;67.28;98604.59;5038938;28;20634;-65
2021/05/31 04:14:09;;;;;;;6.60;4.23;;;12.00;62.00;;;11.97;67.98;98603.22;5034755;28;20646;-65
2021/05/31 04:16:40;;;;;;;5.50;4.27;;;12.00;62.30;;;11.95;68.32;98607.72;5034990;28;21033;-66
2021/05/31 04:19:10;;;;;;;5.23;4.10;;;12.00;63.50;;;11.97;69.22;98611.06;5036592;28;20733;-65
2021/05/31 04:21:41;;;;;;;4.70;3.73;;;12.00;63.60;;;11.99;68.58;98609.19;5035087;28;21087;-65
2021/05/31 04:24:11;;;;;;;6.10;4.47;;;12.00;64.60;;;11.96;68.76;98606.75;5038471;28;21242;-65
2021/05/31 04:26:40;;;;;;;6.10;3.90;;;12.00;63.90;;;11.95;70.06;98605.09;5038665;28;21023;-65
2021/05/31 04:29:13;;;;;;;4.90;4.37;;;12.00;64.50;;;11.92;70.23;98604.44;5038751;28;20646;-65
2021/05/31 04:31:41;;;;;;;6.63;4.20;;;12.00;64.70;;;11.90;69.42;98607.16;5037085;28;20698;-65
2021/05/31 04:34:11;;;;;;;6.60;3.93;;;11.90;65.00;;;11.92;70.17;98610.53;5036609;28;20659;-65
2021/05/31 04:36:42;;;;;;;6.27;4.50;;;12.00;65.60;;;11.89;69.34;98608.13;5039472;28;21054;-65
2021/05/31 04:39:11;;;;;;;5.10;4.50;;;11.90;65.30;;;11.91;70.62;98597.56;5039173;28;20649;-65
2021/05/31 04:41:41;;;;;;;5.37;4.87;;;11.90;65.10;;;11.94;70.30;98611.25;5041314;28;20669;-65
2021/05/31 04:44:10;;;;;;;6.30;4.27;;;12.00;65.60;;;11.92;69.96;98601.84;5038671;28;20686;-65
2021/05/31 04:46:38;;;;;;;6.60;4.00;;;11.90;66.20;;;11.95;71.77;98605.09;5037767;28;20662;-65
2021/05/31 04:49:07;;;;;;;6.03;4.23;;;12.00;66.70;;;11.99;72.06;98611.78;5036813;28;20657;-65
2021/05/31 04:51:35;;;;;;;4.67;3.80;;;12.00;66.80;;;12.04;70.97;98604.50;5044869;28;20665;-65
2021/05/31 04:54:04;;;;;;;5.50;4.23;;;12.10;66.90;;;12.08;70.70;98615.59;5043586;28;20637;-65
2021/05/31 04:56:32;;;;;;;5.57;4.43;;;12.10;67.00;;;12.07;70.70;98609.53;5038809;28;20705;-65
2021/05/31 04:59:01;;;;;;;6.07;4.00;;;12.10;66.30;;;12.09;69.96;98614.63;5044570;28;20636;-65
2021/05/31 05:01:30;;;;;;;5.67;4.80;;;12.10;66.00;;;12.13;70.07;98613.50;5046326;28;20645;-65
2021/05/31 05:03:58;;;;;;;5.87;4.60;;;12.10;66.30;;;12.10;69.75;98619.75;5038165;28;20630;-65
2021/05/31 05:06:27;;;;;;;6.50;4.77;;;12.10;66.20;;;12.19;70.81;98613.09;5045619;28;20665;-65
2021/05/31 05:08:55;;;;;;;6.40;4.27;;;12.20;67.00;;;12.25;71.13;98614.38;5046369;28;21213;-65
2021/05/31 05:11:24;;;;;;;6.97;4.70;;;12.30;67.60;;;12.34;70.62;98615.53;5036410;28;20647;-65
2021/05/31 05:13:52;;;;;;;6.07;4.63;;;12.30;67.50;;;12.40;71.28;98622.97;5039378;28;20751;-65
2021/05/31 05:16:21;;;;;;;5.33;4.53;;;12.40;67.60;;;12.47;69.87;98614.59;5043427;28;21036;-65
2021/05/31 05:18:51;;;;;;;6.43;4.70;;;12.50;67.70;;;12.55;69.95;98612.28;5040176;28;21269;-65
2021/05/31 05:21:19;;;;;;;5.97;4.67;;;12.60;67.30;;;12.60;70.12;98609.38;5043338;28;20716;-65
2021/05/31 05:23:49;;;;;;;7.17;4.50;;;12.60;68.00;;;12.71;71.05;98613.75;5038211;28;20642;-66
2021/05/31 05:26:19;;;;;;;6.77;4.40;;;12.70;67.60;;;12.82;70.33;98616.53;5037908;28;20614;-65
2021/05/31 05:28:48;;;;;;;5.73;4.63;;;12.80;67.80;;;12.92;71.83;98617.56;5039985;28;20738;-65
2021/05/31 05:31:17;;;;;;;5.70;5.00;;;12.90;67.80;;;13.05;70.79;98618.41;5034600;28;20682;-65
2021/05/31 05:33:45;;;;;;;5.10;4.50;;;13.00;68.00;;;13.21;70.96;98611.13;5040578;28;21227;-65
2021/05/31 05:36:23;;;;;;;6.60;4.57;;;13.10;68.50;;;13.38;70.96;98613.38;5045433;28;20626;-65
2021/05/31 05:39:16;;;;;;;5.20;4.70;;;13.30;68.20;;;13.60;70.97;98613.53;5040183;28;20630;-65
2021/05/31 05:41:53;;;;;;;7.00;4.33;;;13.50;68.10;;;14.13;69.41;98619.19;5035242;28;20770;-65
2021/05/31 05:49:53;;;;;;;5.47;4.47;;;15.30;65.30;;;16.57;64.15;98630.03;5030630;28;21031;-65
2021/05/31 05:52:22;;;;;;;7.37;4.07;;;16.10;62.60;;;17.12;62.04;98638.38;5033849;28;21072;-65
2021/05/31 05:54:50;;;;;;;5.00;4.00;;;16.60;58.70;;;17.71;60.45;98637.53;5040239;28;20651;-65
2021/05/31 05:57:18;;;;;;;5.00;3.77;;;17.20;58.00;;;18.24;59.63;98642.38;5040271;28;21228;-65
2021/05/31 05:59:46;;;;;;;5.70;4.23;;;17.80;57.40;;;18.76;58.42;98646.22;5037938;28;20620;-65
2021/05/31 06:02:14;;;;;;;4.40;3.90;;;18.50;55.90;;;19.26;57.35;98655.59;5045605;28;20632;-65
2021/05/31 06:04:43;;;;;;;3.70;3.20;;;18.90;54.70;;;19.75;55.92;98656.09;5039320;28;20670;-65
2021/05/31 06:07:12;;;;;;;3.43;3.00;;;19.50;53.20;;;20.07;53.48;98655.53;5039457;28;21017;-65
2021/05/31 06:09:52;;;;;;;3.70;3.23;;;19.90;49.60;;;20.18;51.49;98665.09;5039921;28;20660;-65
2021/05/31 06:12:20;;;;;;;3.33;3.03;;;20.00;47.10;;;20.24;52.05;98651.22;5041739;28;21231;-65
2021/05/31 06:14:48;;;;;;;3.17;2.80;;;20.10;47.10;;;20.42;51.92;98652.91;5042023;28;20672;-65
2021/05/31 06:17:16;;;;;;;3.37;3.07;;;20.40;47.30;;;20.54;49.83;98652.50;5034673;28;20630;-65
2021/05/31 06:19:44;;;;;;;3.10;2.80;;;20.60;46.50;;;20.67;50.20;98655.63;5040172;28;20630;-65
2021/05/31 06:22:13;;;;;;;6.20;3.40;;;20.70;46.20;;;20.74;49.97;98661.97;5036654;28;20635;-65
2021/05/31 06:24:43;;;;;;;3.87;2.90;;;20.70;45.70;;;20.87;50.46;98657.94;5034450;28;20637;-65
2021/05/31 06:27:12;;;;;;;3.40;3.10;;;20.80;45.70;;;21.06;50.26;98660.38;5040310;28;20624;-66
2021/05/31 06:29:40;;;;;;;3.97;3.30;;;20.90;46.10;;;21.02;49.94;98660.88;5037961;28;20646;-66
2021/05/31 06:32:08;;;;;;;3.20;2.90;;;21.00;44.60;;;20.90;48.31;98656.81;5040137;28;21188;-66
2021/05/31 06:34:37;;;;;;;5.50;3.37;;;20.90;44.20;;;20.79;49.55;98662.34;5034828;28;20713;-65
2021/05/31 06:37:05;;;;;;;3.80;3.50;;;20.60;43.80;;;21.08;50.50;98673.50;5041208;28;20652;-65
2021/05/31 06:39:33;;;;;;;4.33;3.17;;;20.80;45.90;;;21.41;50.58;98669.09;5037434;28;20969;-65
2021/05/31 06:42:02;;;;;;;4.43;3.47;;;21.00;45.70;;;21.61;48.11;98667.91;5042998;28;20672;-65
2021/05/31 06:44:32;;;;;;;4.03;3.63;;;21.20;44.20;;;21.61;49.56;98669.75;5038214;28;20646;-65
2021/05/31 06:47:00;;;;;;;3.23;2.93;;;21.20;44.80;;;21.73;47.17;98669.28;5036712;28;20683;-66
2021/05/31 06:49:28;;;;;;;4.13;3.60;;;21.40;43.50;;;22.08;47.03;98674.41;5039098;28;20654;-65
2021/05/31 06:51:56;;;;;;;3.67;3.17;;;21.70;43.60;;;22.27;47.44;98670.50;5041631;28;20639;-66
2021/05/31 06:54:25;;;;;;;4.80;3.87;;;21.90;43.50;;;22.23;46.40;98668.31;5046675;28;20969;-65
2021/05/31 06:56:53;;;;;;;3.57;3.20;;;21.90;41.70;;;22.26;46.13;98678.63;5054552;28;20694;-65
2021/05/31 06:59:21;;;;;;;3.97;3.57;;;22.00;42.00;;;22.39;47.20;98677.16;5037396;28;20993;-65
2021/05/31 07:01:51;;;;;;;3.90;3.50;;;22.10;42.20;;;22.66;48.10;98671.56;5035636;28;20675;-66
2021/05/31 07:04:19;;;;;;;3.70;3.40;;;22.20;43.60;;;22.66;46.75;98668.91;5036638;28;20644;-66
2021/05/31 07:06:48;;;;;;;3.90;3.50;;;22.40;42.70;;;22.75;45.72;98670.56;5035566;28;20708;-66
2021/05/31 07:09:16;;;;;;;4.37;3.43;;;22.40;41.40;;;22.69;47.04;98681.00;5043241;28;21047;-66
2021/05/31 07:11:46;;;;;;;4.07;3.67;;;22.40;41.90;;;22.64;47.13;98668.22;5038751;28;20639;-66
2021/05/31 07:14:19;;;;;;;5.37;4.70;;;22.40;42.10;;;22.73;47.36;98672.53;5037538;28;20730;-66
2021/05/31 07:16:48;;;;;;;5.10;4.47;;;22.40;42.50;;;22.71;46.39;98669.22;5036758;28;20643;-66
2021/05/31 07:19:18;;;;;;;5.00;4.50;;;22.30;41.30;;;22.82;46.85;98661.75;5042134;28;20639;-66
2021/05/31 07:21:46;;;;;;;4.20;3.80;;;22.40;42.30;;;22.71;46.91;98667.38;5045411;28;20635;-66
2021/05/31 07:24:14;;;;;;;3.40;3.10;;;22.30;42.90;;;22.75;45.79;98659.91;5041262;28;20645;-66
2021/05/31 07:26:42;;;;;;;4.27;2.97;;;22.40;40.90;;;22.46;46.17;98659.56;5042293;28;20642;-66
2021/05/31 07:29:11;;;;;;;3.93;3.47;;;22.20;40.90;;;22.33;46.53;98669.03;5042047;28;21072;-66
2021/05/31 07:31:39;;;;;;;4.93;3.43;;;22.20;40.90;;;22.38;46.79;98659.53;5035595;28;20692;-66
2021/05/31 07:34:07;;;;;;;4.50;3.50;;;22.10;40.90;;;22.68;47.75;98655.44;5039034;28;20638;-66
2021/05/31 07:36:37;;;;;;;3.53;3.07;;;22.30;42.80;;;22.61;46.97;98647.25;5036143;28;21030;-66
2021/05/31 07:39:06;;;;;;;5.03;3.13;;;22.20;41.60;;;22.53;45.95;98657.91;5038282;28;20652;-66
2021/05/31 07:41:34;;;;;;;4.13;3.73;;;22.30;41.20;;;22.49;45.35;98651.25;5035819;28;20954;-66
2021/05/31 07:44:02;;;;;;;3.63;3.33;;;22.30;40.50;;;22.37;46.30;98649.06;5043017;28;20633;-65
2021/05/31 07:46:31;;;;;;;3.77;3.33;;;22.20;40.40;;;22.46;45.32;98651.59;5036197;28;20643;-65
2021/05/31 07:48:59;;;;;;;3.50;2.80;;;22.20;40.20;;;22.39;45.00;98644.44;5038997;28;21271;-66
2021/05/31 07:51:27;;;;;;;3.40;3.10;;;22.20;40.00;;;22.18;45.88;98643.22;5037821;28;21183;-66
2021/05/31 07:53:57;;;;;;;4.23;3.27;;;22.10;40.60;;;22.28;47.27;98650.91;5050810;28;21062;-66
2021/05/31 07:56:27;;;;;;;4.57;3.67;;;22.10;41.60;;;22.52;45.83;98648.28;5039396;28;21033;-66
2021/05/31 07:58:56;;;;;;;4.17;3.20;;;22.10;41.10;;;22.62;46.28;98637.47;5041049;28;21184;-66
2021/05/31 08:01:25;;;;;;;5.80;3.50;;;22.30;41.60;;;22.59;45.81;98643.13;5034765;28;20688;-66
2021/05/31 08:03:56;;;;;;;5.13;3.20;;;22.20;40.60;;;22.98;46.36;98651.13;5035725;28;20671;-66
2021/05/31 08:06:24;;;;;;;3.80;3.30;;;22.50;41.50;;;23.13;45.71;98649.44;5041584;28;20682;-66
2021/05/31 08:08:52;;;;;;;3.17;2.90;;;22.70;40.70;;;23.22;44.80;98651.91;5037321;28;20638;-66
2021/05/31 08:11:22;;;;;;;4.47;3.53;;;22.80;40.60;;;23.32;45.58;98649.91;5034501;28;20715;-66
2021/05/31 08:13:50;;;;;;;4.77;3.77;;;22.80;40.20;;;23.37;46.70;98644.88;5035400;28;20631;-66
2021/05/31 08:16:18;;;;;;;4.33;3.70;;;23.00;41.30;;;23.42;44.89;98650.53;5035411;28;20984;-66
2021/05/31 08:18:47;;;;;;;4.27;3.60;;;23.00;39.90;;;23.66;46.09;98647.81;5045994;28;20721;-66
2021/05/31 08:21:15;;;;;;;5.03;3.30;;;23.20;41.60;;;23.49;47.22;98643.53;5031576;28;20674;-66
2021/05/31 08:23:43;;;;;;;3.83;3.47;;;23.20;42.30;;;23.16;45.82;98640.28;5041928;28;21177;-66
2021/05/31 08:26:11;;;;;;;4.00;3.20;;;23.00;39.40;;;22.93;45.57;98636.63;5044832;28;20675;-66
2021/05/31 08:28:42;;;;;;;4.10;3.07;;;22.80;39.80;;;22.91;44.38;98627.97;5035743;28;20642;-66
2021/05/31 08:31:10;;;;;;;3.40;3.03;;;22.70;38.90;;;22.92;45.51;98625.13;5039075;28;21229;-66
2021/05/31 08:33:38;;;;;;;3.27;2.97;;;22.70;39.80;;;23.01;44.03;98629.47;5041799;28;20645;-66
2021/05/31 08:36:07;;;;;;;3.73;3.43;;;22.60;39.20;;;22.78;44.91;98631.16;5032622;28;20679;-66
2021/05/31 08:38:36;;;;;;;3.50;3.20;;;22.50;38.70;;;22.48;44.65;98615.00;5025353;28;20645;-66
2021/05/31 08:41:04;;;;;;;3.40;3.03;;;22.20;38.50;;;22.57;43.69;98610.53;5040124;28;20652;-66
2021/05/31 08:43:32;;;;;;;3.30;3.00;;;22.30;38.30;;;21.88;45.16;98625.19;5039267;28;20638;-66
2021/05/31 08:46:02;;;;;;;3.50;3.20;;;21.70;38.10;;;21.94;44.29;98614.72;5042366;28;21185;-66
2021/05/31 08:48:31;;;;;;;3.57;2.80;;;21.60;38.50;;;22.07;45.14;98608.94;5039827;28;20744;-66
2021/05/31 08:51:00;;;;;;;3.63;2.80;;;21.60;39.50;;;22.28;46.13;98616.34;5044566;28;20654;-66
2021/05/31 08:53:28;;;;;;;3.80;2.60;;;21.80;41.00;;;22.10;43.23;98619.25;5037400;28;21046;-66
2021/05/31 08:55:56;;;;;;;4.80;3.30;;;21.70;38.70;;;21.56;44.70;98617.09;5038151;28;20670;-66
2021/05/31 08:58:25;;;;;;;3.33;2.83;;;21.40;38.10;;;21.56;46.45;98610.94;5042415;28;20684;-66
2021/05/31 09:00:53;;;;;;;3.40;2.90;;;21.20;39.50;;;21.82;45.47;98608.06;5030096;28;20636;-66
2021/05/31 09:03:23;;;;;;;2.83;2.53;;;21.40;39.20;;;21.92;44.56;98623.84;5041227;28;20661;-66
2021/05/31 09:05:51;;;;;;;3.70;3.40;;;21.50;38.50;;;21.80;44.41;98614.53;5029779;28;21165;-66
2021/05/31 09:08:21;;;;;;;3.40;3.10;;;21.50;38.40;;;21.96;44.40;98617.22;5040046;28;20210;-66
2021/05/31 09:10:53;;;;;;;3.53;2.90;;;21.70;38.90;;;21.84;44.28;98619.34;5030585;28;20666;-66
2021/05/31 09:13:30;;;;;;;3.07;2.77;;;21.60;38.20;;;21.98;44.68;98609.91;5041616;28;20740;-66
2021/05/31 09:16:13;;;;;;;3.10;2.80;;;21.70;37.70;;;22.31;45.61;98608.03;5043648;28;20625;-65
2021/05/31 09:18:49;;;;;;;3.77;3.10;;;21.90;40.20;;;22.57;45.47;98608.72;5034195;28;20639;-65
2021/05/31 09:21:22;;;;;;;5.30;3.17;;;22.10;40.10;;;22.34;44.82;98613.03;5040077;28;20627;-65
2021/05/31 09:23:56;;;;;;;3.30;3.00;;;22.10;39.70;;;22.38;43.64;98603.69;5046153;28;20693;-65
2021/05/31 09:26:25;;;;;;;3.70;3.23;;;22.00;38.10;;;22.51;44.99;98598.72;5064654;28;20641;-65
2021/05/31 09:28:56;;;;;;;5.83;3.37;;;22.10;39.60;;;22.84;46.83;98595.88;5042992;28;21073;-65
2021/05/31 09:31:25;;;;;;;3.80;3.40;;;22.40;41.90;;;22.87;43.99;98602.72;5042868;28;20702;-65
2021/05/31 09:34:00;;;;;;;3.30;3.00;;;22.50;38.50;;;22.73;45.57;98606.03;5035037;28;20637;-66
2021/05/31 09:36:34;;;;;;;5.13;4.63;;;22.40;40.40;;;22.71;45.77;98600.88;5036962;28;20636;-65
2021/05/31 09:39:05;;;;;;;4.00;3.10;;;22.30;39.80;;;22.81;44.63;98608.69;5043385;28;20725;-65
2021/05/31 09:41:35;;;;;;;3.57;3.27;;;22.50;39.50;;;22.50;44.28;98607.69;5043177;28;21032;-65
2021/05/31 09:44:06;;;;;;;3.60;3.30;;;22.40;38.30;;;22.16;44.46;98614.13;5048529;28;20748;-65
2021/05/31 09:46:40;;;;;;;2.93;2.73;;;22.10;38.00;;;22.06;45.58;98601.97;5043927;28;20208;-65
2021/05/31 09:49:15;;;;;;;10.20;3.50;;;21.80;39.00;;;22.17;43.32;98599.00;5039178;28;20634;-65
2021/05/31 09:51:57;;;;;;;3.80;3.33;;;21.90;38.50;;;22.23;44.10;98595.72;5039975;28;20693;-65
2021/05/31 09:54:30;;;;;;;3.60;3.20;;;21.90;38.70;;;21.98;44.95;98588.66;5040963;28;21232;-65
2021/05/31 09:57:00;;;;;;;4.07;2.90;;;21.70;38.60;;;22.10;45.60;98588.19;5038806;28;21180;-65
2021/05/31 09:59:30;;;;;;;4.70;3.30;;;21.80;39.80;;;21.98;44.86;98586.00;5041423;28;20640;-65
2021/05/31 10:02:01;;;;;;;2.73;2.53;;;21.70;39.30;;;21.88;43.59;98582.66;5036841;28;20652;-65
2021/05/31 10:04:42;;;;;;;3.27;2.97;;;21.70;37.80;;;22.07;44.98;98583.22;5039155;28;20636;-65
2021/05/31 10:07:19;;;;;;;3.53;3.07;;;21.80;38.90;;;21.90;44.56;98575.38;5042672;28;20689;-65
2021/05/31 10:09:48;;;;;;;3.40;3.10;;;21.50;38.50;;;21.72;43.95;98574.66;5038990;28;20648;-65
2021/05/31 10:12:17;;;;;;;3.23;2.93;;;21.30;37.90;;;21.76;45.35;98571.50;5034905;28;22908;-65
2021/05/31 10:14:46;;;;;;;4.43;3.30;;;21.40;39.70;;;22.04;45.89;98567.59;5039749;28;20645;-65
2021/05/31 10:17:15;;;;;;;4.83;3.17;;;21.60;40.80;;;21.90;46.68;98564.72;5033810;28;20975;-65
2021/05/31 10:19:45;;;;;;;4.40;4.00;;;21.50;40.60;;;21.91;46.99;98574.38;5025189;28;20624;-65
2021/05/31 10:22:14;;;;;;;3.80;3.40;;;21.60;41.90;;;22.08;45.50;98568.09;5040966;28;20665;-65
2021/05/31 10:24:43;;;;;;;3.97;3.57;;;21.70;40.20;;;22.29;47.33;98566.63;5039208;28;20650;-66
2021/05/31 10:27:15;;;;;;;4.90;3.17;;;21.90;41.40;;;22.52;45.10;98570.28;5038707;28;20718;-65
2021/05/31 10:29:45;;;;;;;3.40;3.03;;;22.10;40.10;;;22.31;46.21;98564.63;5033193;28;20698;-65
2021/05/31 10:32:13;;;;;;;3.87;3.47;;;21.90;40.20;;;22.21;45.38;98557.84;5041843;28;20661;-65
2021/05/31 10:34:48;;;;;;;5.03;3.27;;;21.90;40.20;;;22.03;45.92;98563.25;5039487;28;20645;-65
2021/05/31 10:37:25;;;;;;;3.77;3.37;;;21.80;40.00;;;22.07;46.86;98561.94;5058048;28;21205;-65
2021/05/31 10:40:09;;;;;;;3.70;3.30;;;21.80;40.20;;;22.27;44.94;98558.84;5050397;28;21004;-65